• Join FlightAware (Why Join?)
  • Login
  • US Flag 
08:20PM EDT


 

Airport Tracker/Info


-or-


 

Live Flight TrackerFlight Track Log ✈ DAL6234 ✈ 25-Apr-2013 ✈ KSYR - KLGA

Flight Track Log - Related Links

Times and Time Zones

All times are in EDT time to prevent confusion due to time zone crossing. See the DAL6234 flight status page for this flight to view local times or setup timezone preferences in your user account.

Time Position Orientation Groundspeed Altitude Reporting Facility
EDT Latitude Longitude Course Direction KTS MPH feet Rate Location/Type
06:54PM 43.1075 -76.1347 268° West 161 185 1,000  Level Boston Center
06:54PM 43.1069 -76.1547 268° West 158 182 1,600 2,220 Climbing Boston Center
06:55PM 43.0706 -76.1808 208° Southwest 215 247 4,000 2,280 Climbing Boston Center
06:56PM 43.0306 -76.1244 134° Southeast 240 276 6,200 2,400 Climbing Boston Center
06:57PM 42.9811 -76.0447 130° Southeast 251 289 8,800 1,800 Climbing Boston Center
06:58PM 42.9233 -75.9564 132° Southeast 280 322 9,900 1,620 Climbing Boston Center
06:59PM 42.8478 -75.8358 131° Southeast 347 399 12,100 2,100 Climbing Boston Center
07:00PM 42.7761 -75.7244 131° Southeast 373 429 14,100 1,980 Climbing Boston Center
07:01PM 42.7042 -75.6103 131° Southeast 388 447 16,100 1,860 Climbing Boston Center
07:02PM 42.6303 -75.4964 131° Southeast 395 455 17,900 1,560 Climbing Boston Center
07:03PM 42.5542 -75.3772 131° Southeast 400 460 19,300 1,380 Climbing Boston Center
07:04PM 42.4761 -75.2525 130° Southeast 414 476 20,700 840 Climbing Boston Center
07:05PM 42.4150 -75.1006 119° Southeast 438 504 21,000  Climbing Boston Center
07:06PM 42.3561 -74.9436 117° Southeast 451 519 20,700 -600 Descending Boston Center
07:07PM 42.3089 -74.8181 117° Southeast 462 532 19,900 -1,020 Descending Boston Center
07:08PM 42.2436 -74.6361 116° Southeast 462 532 18,700 -960 Descending Boston Center
07:09PM 42.1858 -74.4911 118° Southeast 451 519 18,000 -360 Descending Boston Center
07:10PM 42.1364 -74.3494 115° Southeast 451 519 18,000  Level Boston Center
07:11PM 42.0639 -74.1908 122° Southeast 456 525 18,000 -240 Level Boston Center
07:12PM 41.9711 -74.1294 154° Southeast 421 484 17,600 -720 Descending Boston Center
07:13PM 41.8736 -74.0794 159° South 386 444 16,600 -1,080 Descending Boston Center
07:14PM 41.7828 -74.0353 160° South 343 395 15,500 -1,080 Descending Boston Center
07:15PM 41.7164 -74.0058 162° South 298 343 14,500 -1,140 Descending Boston Center
07:16PM 41.6378 -73.9733 163° South 273 314 13,300 -1,140 Descending Boston Center
07:17PM 41.5756 -73.9469 162° South 268 308 12,300 -1,140 Descending Boston Center
07:18PM 41.5031 -73.9147 162° South 268 308 11,100 -1,140 Descending Boston Center
07:20PM 41.4000 -73.8333 149° Southeast 273 314 9,300 -720 Descending New York TRACON
07:21PM 41.3167 -73.7833 156° South 289 333 9,100 -660 Descending New York TRACON
07:22PM 41.2500 -73.7167 143° Southeast 282 325 8,000 -1,440 Descending New York TRACON
07:23PM 41.2000 -73.6667 143° Southeast 274 315 6,300 -1,320 Descending New York TRACON
07:24PM 41.1500 -73.5833 129° Southeast 251 289 5,400 -960 Descending New York TRACON
07:25PM 41.1167 -73.5167 124° Southeast 236 272 4,400 -660 Descending New York TRACON
07:26PM 41.0667 -73.5167 180° South 225 259 4,100 -180 Descending New York TRACON
07:27PM 41.0500 -73.6000 255° West 212 244 4,100  Level New York TRACON
07:28PM 41.0167 -73.6500 229° Southwest 186 214 4,100  Level New York TRACON
07:29PM 40.9667 -73.6500 180° South 198 228 4,100 -240 Level New York TRACON
07:30PM 40.9500 -73.7000 246° West 183 211 3,700 -600 Descending New York TRACON
07:31PM 40.9333 -73.7500 246° West 184 212 2,900 -600 Descending New York TRACON
07:32PM 40.8833 -73.7833 207° Southwest 162 186 2,500 -600 Descending New York TRACON
07:33PM 40.8500 -73.8167 217° Southwest 146 168 1,700 -600 Descending New York TRACON
07:34PM 40.8167 -73.8333 201° Southwest 130 150 1,300 -420 Descending New York TRACON
07:36PM 40.7667 -73.8667 180° South  Level FlightAware Approximate
07:43PM 40.7772 -73.8726 180° South  Level Estimated
07:44PM 40.7772 -73.8726 180° South  Level Estimated